x

Buoy F01 - West Penobscot Bay (44033) Wave Buoy

2:04pm - Sat 20th Sep 2014 All times are EDT. -4 hours from GMT.

  • Sig Wave height 3.3ft
  • Peak Period 5s
  • Wind
    18mph, 20mph gusts
  • Sea Temp 57°f
  • 空気 Temp 57°f
  • Sea Pressure 1021.8mb
  • Buoy F01 - West Penobscot Bay
  • Buoy F01 - West Penobscot Bay

More Historic Weather Station data

Upgrade to MSW Pro to gain access to the past 30 days of data for over 8000 Wavebouys and Weather Stations around the globe.

Join Pro

Comparision Forecast

View Surf forecast
   
Sat 09/20 2:04pm 3.5ft 5s 18 20 mph 1021.8mb 57f 57f
1:04pm 2.5ft 5s 20 25 mph 1022.6mb 57f 57f
12:04pm 2.5ft 5s 20 27 mph 1023.5mb 57f 57f
11:04am 3ft 5s 20 25 mph 1024mb 57f 56f
10:04am 2.5ft 5s 22 27 mph 1025mb 57f 56f
9:04am 2.5ft 4s 20 22 mph 1025.3mb 56f 56f
8:04am 2ft 4s 18 22 mph 1026mb 56f 55f
7:04am 2.5ft 4s 20 22 mph 1026.6mb 57f 55f
6:04am 2.5ft 4s 18 22 mph 1026.6mb 56f 55f
5:04am 2.5ft 4s 18 20 mph 1027.6mb 56f 55f
4:04am 2.5ft 4s 18 20 mph 1027.5mb 56f 54f
3:04am 2.5ft 4s 18 22 mph 1027.5mb 56f 53f
2:04am 2.5ft 4s 16 20 mph 1028.2mb 56f 53f
1:04am 1.6ft 4s 16 20 mph 1028.3mb 57f 53f
12:04am 1.3ft 3s 16 20 mph 1028mb 57f 53f
Fri 09/19 11:04pm 1.3ft 3s 13 16 mph 1028.7mb 57f 53f
10:04pm 1.6ft 8s 13 16 mph 1028.9mb 57f 53f
9:04pm 1ft 3s 13 16 mph 1028.6mb 57f 53f
8:04pm 1.3ft 3s 13 16 mph 1028.6mb 57f 52f
7:04pm 1ft 3s 13 18 mph 1028mb 57f 52f
6:04pm 1.3ft 8s 11 13 mph 1027.8mb 57f 52f
5:04pm 1ft 8s 9 11 mph 1027.9mb 57f 53f
4:04pm 1ft 8s 2 4 mph 1027.7mb 58f 54f
3:04pm 1ft 11s 7 9 mph 1028.1mb 57f 52f
2:04pm 1ft 11s 7 9 mph 1028.2mb 58f 51f
1:04pm 0.7ft  -  7 9 mph 1028mb 57f 50f
12:04pm  -   -  7 9 mph 1027.8mb 57f 49f
11:04am 1.3ft 3s 13 18 mph 1027.7mb 56f 48f
10:04am 1.3ft 3s 16 20 mph 1027.4mb 56f 48f
9:04am 1.6ft 3s 16 18 mph 1026.8mb 56f 47f
8:04am 1.3ft 3s 13 18 mph 1026.1mb 56f 46f
7:04am 1.3ft 3s 13 18 mph 1025.3mb 56f 47f
6:04am 1.6ft 3s 13 18 mph 1024.4mb 56f 47f
5:04am 1.6ft 3s 16 18 mph 1023.4mb 56f 47f
4:04am 2ft 8s 13 16 mph 1022.6mb 56f 47f
3:04am 1.6ft 3s 13 16 mph 1022mb 56f 48f
2:04am 2ft 3s 16 20 mph 1021.2mb 57f 49f
1:04am 2ft 3s 20 25 mph 1020.6mb 57f 50f
12:04am 2.5ft 3s 22 27 mph 1019.8mb 57f 51f
Thu 09/18 11:04pm 2.5ft 3s 22 27 mph 1019mb 57f 52f
10:04pm 2.5ft 3s 22 27 mph 1018.4mb 57f 54f
9:04pm 1.3ft 3s 20 22 mph 1017.7mb 58f 56f
8:04pm 1.3ft 2s 13 18 mph 1016.2mb 58f 58f
7:04pm 1.3ft 3s 16 18 mph 1015mb 58f 60f
6:04pm 1.3ft 3s 13 16 mph 1014.2mb 58f 61f
5:04pm  -   -  9 11 mph 1013.2mb 58f 62f
4:04pm 1.3ft 4s 13 16 mph 1012.7mb 59f 63f
3:04pm 1.3ft 4s 11 16 mph 1012.5mb 59f 63f
2:04pm 1ft 4s 9 11 mph 1012.3mb 59f 62f
1:04pm 1ft 4s 7 9 mph 1012.3mb 59f 63f
12:04pm 2ft 11s 7 9 mph 1012.6mb 59f 62f
11:04am 2ft 11s 9 11 mph 1012.7mb 58f 63f
10:04am 1.3ft 6s 7 9 mph 1012.9mb 58f 59f
9:04am 1ft 4s 7 9 mph 1012.6mb 58f 55f
8:04am 2ft 11s 7 9 mph 1012.3mb 58f 54f
7:04am  -   -  7
mph
1011.9mb 58f 54f
6:04am 2.5ft 16s 7
mph
1011.5mb 58f 53f
5:04am 1ft 6s 7 9 mph 1011.2mb 58f 56f
4:04am 0.3ft  -  2
mph
1011.3mb 58f 55f
3:04am 2.5ft 16s 4
mph
1011.6mb 58f 56f
2:04am 0.7ft  -  2 4 mph 1012mb 58f 57f
1:04am 0.7ft  -  2
mph
1012.5mb 58f 57f
12:04am 1.3ft 11s 7
mph
1012.7mb 58f 58f
Wed 09/17 11:04pm 0.7ft  -  7 9 mph 1012.9mb 58f 59f
10:04pm 2ft 11s 7
mph
1013.2mb 58f 59f
8:04pm 0.7ft  -  7
mph
1013.7mb 58f 59f
7:04pm 0.7ft  -  4 7 mph 1013.2mb 58f 58f
6:04pm 1.3ft 11s 7 9 mph 1013mb 58f 60f
5:04pm 1ft 6s 9 11 mph 1013mb 59f 59f
4:04pm 0.7ft  -  11 13 mph 1013.2mb 58f 59f
3:04pm 1ft 2s 11 13 mph 1013.4mb 59f 59f
2:04pm 1ft 2s 13 16 mph 1013.7mb 58f 59f
1:04pm 0.7ft  -  11 13 mph 1014.3mb 59f 59f
12:04pm 0.7ft  -  9 11 mph 1014.4mb 59f 60f
11:04am 0.7ft  -  2 4 mph 1014.4mb 58f 60f
10:04am 0.3ft  -  4 7 mph 1014.6mb 58f 58f
9:04am 1ft 16s 7 9 mph 1014.8mb 58f 57f
8:04am 0.7ft  -  2
mph
1014.3mb 58f 60f
7:04am 0.7ft  -  4
mph
1014mb 58f 57f
6:04am 0.7ft  -  4
mph
1013.7mb 58f 54f
5:04am 1ft 11s 7 9 mph 1013.6mb 58f 54f
4:04am 1ft 3s 4 7 mph 1013.2mb 58f 52f
3:04am 0.7ft  -  9 11 mph 1013.2mb 58f 54f
2:04am 1ft 6s 11 13 mph 1013.5mb 58f 55f
1:04am 1ft 6s 9 11 mph 1013.6mb 58f 56f
12:04am 1ft 6s 9 11 mph 1013.6mb 58f 56f
Tue 09/16 11:04pm 0.7ft  -  7 9 mph 1013.5mb 58f 57f
10:04pm 1ft 8s 7 9 mph 1013.5mb 58f 58f
9:04pm 1ft 8s 7 9 mph 1013.4mb 58f 58f
8:04pm 1ft 4s 9
mph
1013.1mb 58f 58f